Time;durP1;ratioP1;P1;durP2;ratioP2;P2;SDS_P1;SDS_P2;PMS_P1;PMS_P2;Temp;Humidity;BMP_temperature;BMP_pressure;BME280_temperature;BME280_humidity;BME280_pressure;Samples;Min_cycle;Max_cycle;Signal;HPM_P1;HPM_P2
2022/07/20 00:01:34;;;;;;;14.00;5.95;;;;;;;21.12;51.41;101055.50;5133040;28;20102;-46
2022/07/20 00:03:59;;;;;;;13.05;5.90;;;;;;;21.02;50.81;101053.00;5133745;28;20031;-45
2022/07/20 00:06:24;;;;;;;12.88;6.15;;;;;;;20.98;51.73;101056.53;5133601;28;20020;-44
2022/07/20 00:11:34;;;;;;;9.40;5.57;;;;;;;20.88;53.47;101049.66;5133429;28;20050;-44
2022/07/20 00:14:01;;;;;;;17.35;6.20;;;;;;;20.80;52.18;101054.06;5132658;28;20031;-46
2022/07/20 00:16:28;;;;;;;13.07;6.22;;;;;;;20.75;53.79;101055.88;5133573;28;20061;-45
2022/07/20 00:18:54;;;;;;;15.05;6.75;;;;;;;20.70;54.67;101050.69;5133516;28;20030;-46
2022/07/20 00:21:20;;;;;;;14.98;6.43;;;;;;;20.58;54.41;101054.25;5132752;28;20031;-44
2022/07/20 00:23:46;;;;;;;14.30;5.85;;;;;;;20.54;53.30;101057.75;5133389;28;20110;-44
2022/07/20 00:26:11;;;;;;;16.50;6.55;;;;;;;20.43;54.25;101049.16;5133201;28;20124;-45
2022/07/20 00:28:37;;;;;;;9.60;5.88;;;;;;;20.36;56.10;101054.44;5132882;28;20474;-48
2022/07/20 00:31:03;;;;;;;12.80;6.30;;;;;;;20.28;55.54;101052.75;5133330;28;20385;-46
2022/07/20 00:33:28;;;;;;;10.40;5.88;;;;;;;20.17;55.66;101042.38;5134894;27;20027;-44
2022/07/20 00:35:53;;;;;;;13.65;6.28;;;;;;;20.15;55.50;101052.81;5136616;27;20023;-49
2022/07/20 00:38:19;;;;;;;13.93;6.38;;;;;;;20.02;55.94;101041.56;5137225;27;20033;-45
2022/07/20 00:40:44;;;;;;;12.73;6.60;;;;;;;20.00;54.46;101053.81;5137236;27;20038;-45
2022/07/20 00:43:10;;;;;;;14.27;6.80;;;;;;;19.92;55.28;101054.72;5136580;27;20019;-46
2022/07/20 00:45:35;;;;;;;13.48;6.47;;;;;;;19.99;52.66;101052.06;5137219;27;20019;-45
2022/07/20 00:48:00;;;;;;;12.10;6.32;;;;;;;20.04;52.17;101068.59;5136901;27;20019;-47
2022/07/20 00:50:26;;;;;;;14.43;6.20;;;;;;;20.40;50.65;101118.09;5136251;27;20030;-44
2022/07/20 00:52:52;;;;;;;11.10;5.40;;;;;;;20.89;46.97;101059.25;5136874;27;20059;-46
2022/07/20 00:55:17;;;;;;;13.23;5.85;;;;;;;21.19;45.59;101055.41;5136726;27;20107;-45
2022/07/20 00:57:43;;;;;;;16.50;6.00;;;;;;;21.49;45.51;101049.84;5136382;27;20102;-47
2022/07/20 01:00:09;;;;;;;12.02;5.72;;;;;;;21.67;44.97;101065.34;5136814;27;20116;-46
2022/07/20 01:02:35;;;;;;;15.00;6.33;;;;;;;21.75;44.17;101078.38;5136925;27;20075;-46
2022/07/20 01:05:01;;;;;;;14.30;6.20;;;;;;;21.70;46.15;101067.97;5136133;27;20269;-45
2022/07/20 01:07:26;;;;;;;14.55;6.28;;;;;;;21.71;46.08;101069.66;5136640;27;20027;-46
2022/07/20 01:09:51;;;;;;;13.20;6.20;;;;;;;21.77;45.25;101094.09;5136581;27;20026;-45
2022/07/20 01:12:17;;;;;;;11.50;5.47;;;;;;;21.71;45.06;101095.91;5135514;27;20096;-49
2022/07/20 01:14:43;;;;;;;14.75;5.85;;;;;;;21.72;45.29;101073.19;5136822;27;20463;-45
2022/07/20 01:17:08;;;;;;;15.20;6.00;;;;;;;21.73;45.13;101105.50;5136566;27;20031;-44
2022/07/20 01:19:34;;;;;;;13.75;5.60;;;;;;;21.53;47.67;101080.38;5135673;27;20031;-48
2022/07/20 01:21:59;;;;;;;17.25;6.07;;;;;;;21.59;45.66;101082.97;5136371;27;20107;-45
2022/07/20 01:24:25;;;;;;;10.35;5.60;;;;;;;21.64;45.68;101091.63;5135419;27;20487;-44
2022/07/20 01:26:51;;;;;;;10.55;5.43;;;;;;;21.58;46.34;101075.97;5136589;27;20547;-46
2022/07/20 01:29:16;;;;;;;9.20;5.35;;;;;;;21.52;46.78;101076.00;5136360;27;20027;-45
2022/07/20 01:31:41;;;;;;;10.85;5.63;;;;;;;21.45;47.39;101082.25;5135396;27;20098;-48
2022/07/20 01:34:07;;;;;;;14.32;5.65;;;;;;;21.35;47.56;101070.97;5136234;27;20126;-45
2022/07/20 01:36:33;;;;;;;12.63;5.57;;;;;;;21.32;47.56;101071.88;5136085;27;20027;-49
2022/07/20 01:38:58;;;;;;;14.73;5.93;;;;;;;21.27;47.45;101071.06;5135310;27;20023;-48
2022/07/20 01:41:23;;;;;;;12.73;5.63;;;;;;;21.10;49.76;101073.00;5136180;27;20023;-48
2022/07/20 01:43:49;;;;;;;12.73;5.80;;;;;;;21.06;49.02;101069.56;5135766;27;20027;-46
2022/07/20 01:46:14;;;;;;;11.73;6.03;;;;;;;20.90;51.01;101055.72;5134134;27;20493;-47
2022/07/20 01:48:40;;;;;;;12.35;6.20;;;;;;;20.88;49.36;101058.38;5136137;27;20355;-46
2022/07/20 01:51:05;;;;;;;15.80;5.85;;;;;;;20.84;49.64;101059.28;5136025;27;20079;-46
2022/07/20 01:53:31;;;;;;;11.52;5.72;;;;;;;20.76;50.53;101070.72;5134891;27;20023;-45
2022/07/20 01:55:56;;;;;;;18.95;6.70;;;;;;;20.73;50.20;101066.38;5135715;27;20054;-46
2022/07/20 01:58:22;;;;;;;10.23;5.95;;;;;;;20.62;50.93;101069.06;5135809;27;20027;-45
2022/07/20 02:00:48;;;;;;;15.82;6.43;;;;;;;20.59;50.64;101069.06;5135086;27;20042;-45
2022/07/20 02:03:14;;;;;;;9.90;6.72;;;;;;;20.54;50.94;101073.47;5135523;27;20031;-48
2022/07/20 02:05:39;;;;;;;17.65;6.20;;;;;;;20.53;51.02;101079.63;5135677;27;20027;-45
2022/07/20 02:08:05;;;;;;;16.23;5.80;;;;;;;20.50;51.44;101080.50;5134636;27;20033;-47
2022/07/20 02:10:30;;;;;;;12.38;5.93;;;;;;;20.43;52.21;101088.44;5135392;27;20102;-45
2022/07/20 02:12:56;;;;;;;10.32;5.85;;;;;;;20.32;52.20;101085.88;5135544;27;20078;-45
2022/07/20 02:18:07;;;;;;;10.45;6.47;;;;;;;20.63;47.07;101115.31;5135719;27;20501;-45
2022/07/20 02:20:32;;;;;;;12.63;6.73;;;;;;;20.95;46.74;101114.19;5134781;27;20537;-45
2022/07/20 02:22:58;;;;;;;12.73;6.85;;;;;;;21.18;46.00;101110.47;5134943;27;20194;-44
2022/07/20 02:25:23;;;;;;;14.20;7.00;;;;;;;21.42;45.34;101111.09;5135256;27;20432;-45
2022/07/20 02:27:48;;;;;;;12.90;7.68;;;;;;;21.61;45.65;101107.41;5134685;27;20395;-46
2022/07/20 02:30:14;;;;;;;16.80;8.20;;;;;;;21.74;46.01;101104.63;5135018;27;20466;-45
2022/07/20 02:32:40;;;;;;;15.75;9.35;;;;;;;21.82;46.95;101102.75;5135046;27;20066;-48
2022/07/20 02:35:05;;;;;;;19.67;10.57;;;;;;;21.90;47.54;101114.06;5134269;27;20050;-45
2022/07/20 02:37:31;;;;;;;21.73;11.52;;;;;;;21.98;48.48;101109.56;5134761;27;20075;-46
2022/07/20 02:39:56;;;;;;;21.50;11.82;;;;;;;22.01;49.03;101106.03;5135044;27;20048;-46
2022/07/20 02:42:21;;;;;;;27.60;13.38;;;;;;;22.01;49.57;101104.28;5133904;27;20106;-49
2022/07/20 02:44:46;;;;;;;25.92;13.10;;;;;;;21.94;50.35;101113.13;5135012;27;20039;-45
2022/07/20 02:47:11;;;;;;;25.48;15.00;;;;;;;21.96;51.36;101116.59;5134688;27;20019;-45
2022/07/20 02:49:37;;;;;;;28.10;15.07;;;;;;;21.94;51.95;101123.59;5133893;27;20027;-48
2022/07/20 02:52:02;;;;;;;38.42;16.02;;;;;;;21.92;52.69;101125.38;5134501;27;20543;-45
2022/07/20 02:54:28;;;;;;;27.17;16.98;;;;;;;21.83;53.21;101120.25;5134781;27;20058;-45
2022/07/20 02:56:53;;;;;;;30.95;17.42;;;;;;;21.75;53.70;101119.50;5133656;27;20022;-45
2022/07/20 02:59:18;;;;;;;36.10;18.70;;;;;;;21.68;54.85;101116.94;5134502;27;20095;-46
2022/07/20 03:01:44;;;;;;;34.55;18.92;;;;;;;21.62;55.24;101110.91;5134542;27;20272;-45
2022/07/20 03:04:09;;;;;;;36.63;19.65;;;;;;;21.53;55.93;101117.09;5133659;27;20023;-46
2022/07/20 03:06:35;;;;;;;37.03;19.13;;;;;;;21.46;56.41;101115.41;5134491;27;20027;-45
2022/07/20 03:09:00;;;;;;;37.80;19.95;;;;;;;21.33;57.20;101126.06;5134511;27;20542;-46
2022/07/20 03:11:25;;;;;;;33.30;19.35;;;;;;;21.30;57.77;101130.44;5133493;27;20043;-46
2022/07/20 03:13:50;;;;;;;32.05;20.48;;;;;;;21.25;58.38;101130.50;5134374;27;20492;-48
2022/07/20 03:16:16;;;;;;;40.05;22.08;;;;;;;21.17;58.97;101134.94;5134067;27;20426;-44
2022/07/20 03:18:41;;;;;;;35.85;22.80;;;;;;;21.17;60.04;101127.94;5133428;27;20027;-45
2022/07/20 03:21:06;;;;;;;42.55;24.67;;;;;;;21.15;60.60;101126.22;5134004;27;20482;-45
2022/07/20 03:23:32;;;;;;;40.25;25.73;;;;;;;21.10;62.03;101130.66;5133960;27;20027;-46
2022/07/20 03:25:57;;;;;;;42.92;26.00;;;;;;;21.10;62.35;101135.91;5133481;27;20052;-45
2022/07/20 03:28:22;;;;;;;46.20;24.80;;;;;;;21.09;62.56;101142.03;5133973;27;20034;-48
2022/07/20 03:30:47;;;;;;;42.72;27.13;;;;;;;20.98;63.23;101140.38;5134222;27;20023;-45
2022/07/20 03:33:13;;;;;;;46.25;27.92;;;;;;;20.98;63.85;101152.59;5132971;27;20019;-44
2022/07/20 03:35:38;;;;;;;46.50;27.48;;;;;;;20.97;64.19;101158.75;5133855;27;20033;-46
2022/07/20 03:38:03;;;;;;;44.25;28.52;;;;;;;20.92;65.12;101161.38;5133320;27;20493;-45
2022/07/20 03:40:28;;;;;;;50.95;30.08;;;;;;;20.95;65.78;101160.50;5133678;27;20027;-44
2022/07/20 03:42:54;;;;;;;57.88;30.70;;;;;;;20.92;66.26;101169.25;5133873;27;20038;-44
2022/07/20 03:45:19;;;;;;;67.93;32.63;;;;;;;20.90;66.99;101176.22;5133020;27;20072;-44
2022/07/20 03:47:44;;;;;;;51.33;32.33;;;;;;;20.90;67.21;101178.84;5133967;27;20027;-45
2022/07/20 03:50:10;;;;;;;56.22;33.50;;;;;;;20.85;67.85;101186.78;5133663;27;20021;-45
2022/07/20 03:52:35;;;;;;;55.90;35.30;;;;;;;20.85;68.24;101197.25;5133103;28;20038;-45
2022/07/20 03:55:00;;;;;;;61.05;35.90;;;;;;;20.85;68.58;101199.88;5133846;28;20090;-44
2022/07/20 03:57:26;;;;;;;59.35;34.95;;;;;;;20.87;68.67;101203.31;5133781;28;20098;-45
2022/07/20 03:59:51;;;;;;;58.40;36.58;;;;;;;20.87;69.26;101210.34;5133122;28;20023;-46
2022/07/20 04:02:16;;;;;;;57.88;36.10;;;;;;;20.86;69.28;101213.81;5133548;28;20027;-47
2022/07/20 04:04:41;;;;;;;64.30;38.70;;;;;;;20.82;69.68;101217.34;5133621;28;20110;-46
2022/07/20 04:07:07;;;;;;;57.13;37.95;;;;;;;20.81;69.54;101228.72;5133006;27;20027;-44
2022/07/20 04:09:44;;;;;;;67.20;38.17;;;;;;;20.82;69.95;101227.84;5137065;27;20076;-45
2022/07/20 04:12:11;;;;;;;63.17;37.80;;;;;;;20.81;69.84;101223.47;5137493;27;20039;-46
2022/07/20 04:14:37;;;;;;;60.97;37.53;;;;;;;20.80;70.01;101225.22;5137101;27;20023;-48
2022/07/20 04:17:02;;;;;;;61.53;37.63;;;;;;;20.80;70.05;101232.19;5137652;27;20030;-45
2022/07/20 04:19:28;;;;;;;58.60;38.50;;;;;;;20.79;70.00;101238.34;5137538;27;20023;-44
2022/07/20 04:21:58;;;;;;;62.38;37.90;;;;;;;20.78;70.10;101234.84;5136994;27;20023;-44
2022/07/20 04:24:24;;;;;;;65.25;39.67;;;;;;;20.80;70.39;101240.06;5137565;27;20031;-46
2022/07/20 04:26:49;;;;;;;60.22;37.63;;;;;;;20.81;70.28;101247.94;5137572;27;20050;-47
2022/07/20 04:29:15;;;;;;;57.55;37.35;;;;;;;20.85;70.20;101248.75;5136578;27;20020;-46
2022/07/20 04:31:40;;;;;;;60.58;36.05;;;;;;;20.88;70.02;101248.75;5137354;27;20051;-45
2022/07/20 04:34:05;;;;;;;63.72;38.47;;;;;;;20.92;70.07;101255.72;5137170;27;20489;-45
2022/07/20 04:36:31;;;;;;;63.05;37.13;;;;;;;20.95;69.80;101254.81;5136628;27;20035;-46
2022/07/20 04:38:56;;;;;;;66.20;38.72;;;;;;;21.00;69.59;101251.25;5137209;27;20098;-45
2022/07/20 04:41:21;;;;;;;63.70;37.95;;;;;;;21.05;69.42;101251.25;5136516;27;20489;-45
2022/07/20 04:43:46;;;;;;;69.57;39.10;;;;;;;21.11;69.36;101260.81;5137341;27;20058;-44
2022/07/20 04:46:12;;;;;;;62.22;38.00;;;;;;;21.18;68.73;101257.25;5136971;27;20023;-45
2022/07/20 04:48:38;;;;;;;69.60;36.30;;;;;;;21.21;68.62;101267.72;5136349;27;20023;-46
2022/07/20 04:51:03;;;;;;;67.50;38.17;;;;;;;21.24;68.88;101272.94;5137150;27;20046;-45
2022/07/20 04:53:28;;;;;;;68.07;38.05;;;;;;;21.28;68.51;101274.66;5136938;27;20115;-44
2022/07/20 04:55:54;;;;;;;66.90;36.53;;;;;;;21.28;68.23;101285.16;5136279;27;20043;-47
2022/07/20 04:58:19;;;;;;;60.47;36.67;;;;;;;21.28;68.38;101279.00;5136873;27;20027;-46
2022/07/20 05:00:44;;;;;;;55.72;37.08;;;;;;;21.27;68.49;101286.03;5136843;27;20045;-45
2022/07/20 05:03:09;;;;;;;60.83;36.05;;;;;;;21.25;68.45;101293.00;5135838;27;20474;-45
2022/07/20 05:05:35;;;;;;;59.13;37.10;;;;;;;21.25;68.60;101284.28;5136811;27;20019;-44
2022/07/20 05:08:01;;;;;;;64.35;34.85;;;;;;;21.21;68.05;101280.81;5136757;27;20033;-47
2022/07/20 05:10:26;;;;;;;67.30;37.00;;;;;;;21.20;68.35;101271.22;5135689;27;20050;-45
2022/07/20 05:12:52;;;;;;;60.20;35.40;;;;;;;21.20;68.54;101276.44;5136635;27;20446;-45
2022/07/20 05:15:19;;;;;;;60.35;35.55;;;;;;;21.18;68.53;101278.22;5136462;27;20446;-47
2022/07/20 05:17:44;;;;;;;61.83;36.05;;;;;;;21.16;68.57;101279.97;5135906;27;20029;-46
2022/07/20 05:20:10;;;;;;;65.43;35.47;;;;;;;21.15;68.40;101270.38;5136476;27;20118;-45
2022/07/20 05:22:36;;;;;;;57.40;34.83;;;;;;;21.16;68.50;101277.38;5136621;27;20035;-44
2022/07/20 05:25:01;;;;;;;63.38;34.53;;;;;;;21.16;68.34;101279.97;5135742;27;20060;-45
2022/07/20 05:27:26;;;;;;;60.65;35.25;;;;;;;21.18;68.52;101286.94;5136383;27;20053;-46
2022/07/20 05:29:51;;;;;;;71.28;35.28;;;;;;;21.20;68.62;101282.59;5136262;27;20031;-46
2022/07/20 05:32:17;;;;;;;53.75;33.42;;;;;;;21.25;68.33;101298.25;5135277;27;20027;-46
2022/07/20 05:34:42;;;;;;;53.83;32.95;;;;;;;21.30;68.24;101304.34;5136262;27;20055;-45
2022/07/20 05:37:07;;;;;;;56.20;33.08;;;;;;;21.35;67.99;101313.03;5136307;27;20079;-47
2022/07/20 05:39:32;;;;;;;56.60;33.72;;;;;;;21.41;67.97;101332.22;5135428;27;20019;-45
2022/07/20 05:41:58;;;;;;;59.08;32.67;;;;;;;21.41;67.48;101322.63;5136043;27;20030;-46
2022/07/20 05:44:23;;;;;;;53.72;31.67;;;;;;;21.46;67.06;101328.69;5136010;27;20381;-47
2022/07/20 05:46:48;;;;;;;54.97;30.92;;;;;;;21.51;67.02;101333.88;5135192;27;20015;-46
2022/07/20 05:49:14;;;;;;;50.17;29.42;;;;;;;21.55;65.95;101338.28;5135886;27;20031;-46
2022/07/20 05:51:39;;;;;;;47.05;29.75;;;;;;;21.61;66.26;101356.56;5135285;27;20385;-49
2022/07/20 05:54:04;;;;;;;51.50;29.60;;;;;;;21.67;65.83;101353.03;5135869;27;20059;-45
2022/07/20 05:56:31;;;;;;;50.47;28.30;;;;;;;21.77;65.70;101372.19;5135622;27;20027;-45
2022/07/20 05:58:56;;;;;;;41.10;26.35;;;;;;;21.85;65.05;101362.50;5135153;27;20019;-45
2022/07/20 06:01:22;;;;;;;47.47;27.45;;;;;;;21.97;64.70;101366.75;5135530;27;20390;-45
2022/07/20 06:03:47;;;;;;;47.40;26.33;;;;;;;22.14;63.84;101371.84;5135697;27;20374;-45
2022/07/20 06:06:12;;;;;;;47.00;25.90;;;;;;;22.35;63.70;101382.13;5134822;27;20027;-45
2022/07/20 06:08:38;;;;;;;45.05;25.48;;;;;;;22.51;62.42;101395.13;5135729;27;20026;-46
2022/07/20 06:11:03;;;;;;;41.10;26.10;;;;;;;22.58;61.83;101386.28;5135326;27;20398;-45
2022/07/20 06:13:29;;;;;;;38.25;26.52;;;;;;;22.64;61.66;101390.59;5134626;27;20388;-45
2022/07/20 06:15:54;;;;;;;40.33;24.45;;;;;;;22.64;61.26;101404.59;5135314;27;20059;-45
2022/07/20 06:18:20;;;;;;;40.63;24.80;;;;;;;22.70;61.59;101408.91;5135167;27;20015;-45
2022/07/20 06:20:45;;;;;;;45.38;24.60;;;;;;;22.67;61.04;101403.69;5134700;27;20378;-48
2022/07/20 06:23:11;;;;;;;39.65;23.08;;;;;;;22.66;60.84;101413.31;5135195;27;20386;-46
2022/07/20 06:25:36;;;;;;;37.78;23.15;;;;;;;22.63;60.78;101420.38;5135348;27;20030;-47
2022/07/20 06:28:01;;;;;;;36.20;22.77;;;;;;;22.57;60.86;101431.84;5134454;27;20378;-45
2022/07/20 06:30:26;;;;;;;36.78;21.20;;;;;;;22.61;61.18;101428.28;5134454;27;20102;-45
2022/07/20 06:32:52;;;;;;;46.35;21.98;;;;;;;22.59;60.87;101435.28;5134922;27;20066;-47
2022/07/20 06:35:18;;;;;;;40.08;21.15;;;;;;;22.59;60.81;101443.19;5134072;27;20106;-45
2022/07/20 06:37:43;;;;;;;36.92;20.67;;;;;;;22.58;61.40;101444.09;5135128;27;20031;-47
2022/07/20 06:40:09;;;;;;;34.83;21.33;;;;;;;22.59;61.32;101448.44;5134856;27;20023;-44
2022/07/20 06:42:35;;;;;;;35.40;21.02;;;;;;;22.59;61.71;101458.94;5133936;27;20479;-44
2022/07/20 06:45:01;;;;;;;41.33;22.23;;;;;;;22.57;61.26;101462.47;5134796;27;20051;-44
2022/07/20 06:47:26;;;;;;;37.78;21.45;;;;;;;22.56;61.20;101474.75;5134658;27;20106;-44
2022/07/20 06:49:51;;;;;;;31.63;20.02;;;;;;;22.54;61.56;101484.38;5133950;27;20020;-47
2022/07/20 06:52:17;;;;;;;37.72;21.80;;;;;;;22.60;61.51;101496.59;5134697;27;20521;-45
2022/07/20 06:54:42;;;;;;;37.40;20.17;;;;;;;22.64;61.44;101499.16;5134820;27;20058;-44
2022/07/20 06:57:08;;;;;;;35.67;20.30;;;;;;;22.69;60.98;101518.38;5133879;27;20080;-45
2022/07/20 06:59:33;;;;;;;36.28;20.52;;;;;;;22.73;61.02;101492.09;5134516;27;20058;-45
2022/07/20 07:01:59;;;;;;;37.22;20.50;;;;;;;22.69;61.52;101497.38;5133752;27;20374;-45
2022/07/20 07:04:24;;;;;;;40.83;20.02;;;;;;;22.68;62.00;101505.25;5134286;27;20023;-44
2022/07/20 07:06:49;;;;;;;41.77;22.50;;;;;;;22.68;61.73;101495.66;5134640;27;20030;-46
2022/07/20 07:09:15;;;;;;;39.30;21.58;;;;;;;22.76;61.74;101507.81;5133538;27;20432;-45
2022/07/20 07:11:40;;;;;;;39.10;20.98;;;;;;;22.92;61.24;101504.13;5134326;27;20516;-45
2022/07/20 07:14:06;;;;;;;38.45;21.23;;;;;;;22.95;59.95;101500.59;5134259;27;20023;-45
2022/07/20 07:16:31;;;;;;;42.13;21.88;;;;;;;22.97;60.65;101506.69;5133428;27;20086;-45
2022/07/20 07:18:57;;;;;;;33.38;20.42;;;;;;;23.06;61.07;101506.59;5134271;27;20024;-47
2022/07/20 07:21:23;;;;;;;39.47;20.92;;;;;;;23.20;60.88;101498.56;5134293;27;20068;-45
2022/07/20 07:23:52;;;;;;;39.17;21.70;;;;;;;23.30;59.41;101505.44;5133524;27;20062;-44
2022/07/20 07:26:19;;;;;;;38.45;21.42;;;;;;;23.54;59.36;101508.66;5134011;27;20027;-45
2022/07/20 07:28:45;;;;;;;37.88;20.42;;;;;;;23.72;58.44;101507.50;5134059;27;20019;-44
2022/07/20 07:31:11;;;;;;;37.15;21.23;;;;;;;23.78;57.74;101519.69;5132936;27;20031;-44
2022/07/20 07:33:36;;;;;;;39.25;21.80;;;;;;;23.89;57.91;101530.94;5134170;27;20072;-42
2022/07/20 07:36:02;;;;;;;39.45;22.02;;;;;;;23.92;57.37;101536.19;5134081;27;20035;-44
2022/07/20 07:38:28;;;;;;;37.58;20.48;;;;;;;24.01;57.41;101545.72;5133171;27;20023;-43
2022/07/20 07:40:53;;;;;;;41.13;21.50;;;;;;;23.98;57.30;101549.25;5134024;27;20030;-45
2022/07/20 07:43:19;;;;;;;36.88;20.83;;;;;;;23.92;57.33;101551.97;5132821;27;20026;-44
2022/07/20 07:45:44;;;;;;;34.85;20.67;;;;;;;23.92;57.16;101565.16;5133098;27;20023;-46
2022/07/20 07:48:10;;;;;;;36.95;20.52;;;;;;;23.89;57.74;101561.69;5133907;27;20019;-45
2022/07/20 07:50:37;;;;;;;39.70;21.23;;;;;;;23.89;57.63;101573.06;5133831;27;20023;-43
2022/07/20 07:53:02;;;;;;;31.48;20.23;;;;;;;23.98;57.01;101572.09;5132891;27;20023;-45
2022/07/20 07:55:27;;;;;;;30.30;19.55;;;;;;;24.00;57.45;101576.44;5133626;28;20034;-48
2022/07/20 07:57:52;;;;;;;33.03;19.43;;;;;;;24.11;56.93;101581.53;5133686;28;20417;-47
2022/07/20 08:00:18;;;;;;;33.67;19.97;;;;;;;24.20;56.73;101583.16;5132647;28;20280;-48
2022/07/20 08:02:43;;;;;;;36.88;19.85;;;;;;;24.15;55.86;101566.56;5133930;28;20273;-46
2022/07/20 08:05:08;;;;;;;33.85;19.35;;;;;;;24.24;55.77;101563.78;5133407;28;20019;-44
2022/07/20 08:07:35;;;;;;;28.70;18.15;;;;;;;24.33;55.49;101562.78;5133099;28;20470;-48
2022/07/20 08:10:01;;;;;;;35.10;17.88;;;;;;;24.47;56.39;101557.28;5133625;28;20020;-45
2022/07/20 08:12:26;;;;;;;34.80;17.90;;;;;;;24.55;54.89;101539.56;5132510;28;20053;-46
2022/07/20 08:14:52;;;;;;;28.25;17.33;;;;;;;24.72;55.25;101535.78;5133411;28;20470;-46
2022/07/20 08:17:19;;;;;;;28.58;16.40;;;;;;;24.96;55.53;101531.81;5133568;28;20177;-44
2022/07/20 08:19:44;;;;;;;33.58;17.55;;;;;;;25.10;53.74;101531.50;5132942;28;20023;-44
2022/07/20 08:22:09;;;;;;;28.65;15.13;;;;;;;25.15;51.87;101527.00;5133512;28;20026;-44
2022/07/20 08:24:34;;;;;;;30.80;15.83;;;;;;;25.27;51.74;101521.50;5133444;28;20027;-44
2022/07/20 08:27:00;;;;;;;29.17;15.67;;;;;;;25.47;51.83;101529.03;5132572;28;20257;-45
2022/07/20 08:29:25;;;;;;;29.20;16.33;;;;;;;25.55;50.28;101534.13;5133191;28;20374;-47
2022/07/20 08:31:50;;;;;;;27.50;16.47;;;;;;;25.71;50.54;101541.72;5133725;28;20281;-45
2022/07/20 08:34:15;;;;;;;26.65;15.23;;;;;;;25.67;49.68;101545.31;5132463;28;20297;-45
2022/07/20 08:36:41;;;;;;;24.70;15.30;;;;;;;25.78;49.56;101557.38;5133377;28;20028;-46
2022/07/20 08:39:06;;;;;;;27.08;15.38;;;;;;;25.80;49.87;101567.91;5133327;28;20839;-46
2022/07/20 08:41:34;;;;;;;34.15;15.95;;;;;;;25.79;49.02;101579.34;5132478;28;20023;-44
2022/07/20 08:44:00;;;;;;;29.63;16.30;;;;;;;25.78;49.70;101572.34;5133096;28;20391;-43
2022/07/20 08:46:29;;;;;;;25.50;15.02;;;;;;;25.78;49.83;101574.97;5133198;28;20459;-44
2022/07/20 08:48:55;;;;;;;29.42;15.73;;;;;;;25.90;50.22;101574.72;5132571;28;20027;-43
2022/07/20 08:51:21;;;;;;;26.92;14.77;;;;;;;26.03;52.90;101583.22;5133148;28;20106;-45
2022/07/20 08:53:48;;;;;;;31.05;15.43;;;;;;;26.07;49.61;101574.34;5133625;27;20106;-45
2022/07/20 08:56:14;;;;;;;26.38;14.55;;;;;;;26.34;50.62;101558.72;5136063;27;20019;-44
2022/07/20 08:58:41;;;;;;;26.10;15.57;;;;;;;26.62;48.18;101561.53;5136927;27;20200;-44
2022/07/20 09:01:06;;;;;;;26.48;14.90;;;;;;;26.87;47.49;101560.88;5136794;27;20365;-43
2022/07/20 09:03:32;;;;;;;31.45;15.88;;;;;;;27.12;47.22;101552.25;5136118;27;20019;-49
2022/07/20 09:06:04;;;;;;;30.13;14.73;;;;;;;27.44;47.85;101531.97;5136995;27;20033;-43
2022/07/20 09:08:29;;;;;;;24.92;15.65;;;;;;;27.69;45.48;101531.19;5136131;27;20039;-44
2022/07/20 09:11:01;;;;;;;24.02;14.68;;;;;;;27.84;45.76;101530.72;5136532;27;20063;-44
2022/07/20 09:13:29;;;;;;;27.95;14.68;;;;;;;27.77;46.60;101556.53;5136437;27;20527;-45
2022/07/20 09:15:54;;;;;;;26.90;14.95;;;;;;;27.86;45.47;101576.56;5135937;27;20031;-45
2022/07/20 09:18:31;;;;;;;27.00;14.57;;;;;;;27.86;44.57;101581.88;5136551;27;20120;-45
2022/07/20 09:21:03;;;;;;;26.98;14.32;;;;;;;28.14;44.53;101594.25;5136424;27;20412;-46
2022/07/20 09:23:31;;;;;;;27.08;14.90;;;;;;;28.45;42.74;101601.19;5135620;27;20027;-48
2022/07/20 09:26:04;;;;;;;24.60;14.38;;;;;;;28.55;43.17;101613.22;5136564;27;20106;-49
2022/07/20 09:28:44;;;;;;;28.95;15.57;;;;;;;28.27;44.23;101633.63;5136454;27;20026;-48
2022/07/20 09:31:09;;;;;;;22.05;14.60;;;;;;;27.99;44.49;101640.63;5135305;27;20023;-46
2022/07/20 09:33:35;;;;;;;25.55;14.45;;;;;;;27.79;45.25;101665.06;5135976;27;20071;-46
2022/07/20 09:36:03;;;;;;;24.85;14.50;;;;;;;27.56;45.01;101660.44;5136050;27;20035;-45
2022/07/20 09:38:40;;;;;;;23.73;16.00;;;;;;;27.51;44.68;101644.69;5135294;27;20027;-46
2022/07/20 09:41:21;;;;;;;22.05;14.18;;;;;;;27.76;45.99;101636.03;5136005;27;20493;-47
2022/07/20 09:43:46;;;;;;;27.77;14.35;;;;;;;27.88;45.53;101643.59;5135367;27;20498;-47
2022/07/20 09:46:17;;;;;;;25.35;15.68;;;;;;;27.74;45.16;101629.91;5135848;27;20038;-45
2022/07/20 09:48:48;;;;;;;25.70;14.52;;;;;;;27.89;45.80;101624.16;5136102;27;20069;-44
2022/07/20 09:51:43;;;;;;;25.88;15.30;;;;;;;28.23;46.76;101612.50;5135198;27;20023;-46
2022/07/20 09:54:11;;;;;;;27.88;14.35;;;;;;;28.57;44.26;101616.69;5135737;27;20425;-47
2022/07/20 09:56:48;;;;;;;27.52;14.88;;;;;;;28.65;43.75;101613.78;5135903;27;20152;-47
2022/07/20 09:59:14;;;;;;;28.92;14.82;;;;;;;28.65;43.50;101604.94;5135066;27;20015;-45
2022/07/20 10:01:49;;;;;;;22.43;14.53;;;;;;;28.61;43.26;101605.97;5136028;27;20027;-44
2022/07/20 10:04:15;;;;;;;28.35;14.50;;;;;;;28.46;43.54;101594.97;5135583;27;20118;-47
2022/07/20 10:06:43;;;;;;;20.88;14.40;;;;;;;28.49;43.40;101608.13;5134038;27;20026;-45
2022/07/20 10:09:14;;;;;;;;;;;;;;;28.67;43.73;101627.03;5135912;27;20300;-46
2022/07/20 10:11:39;;;;;;;25.23;14.50;;;;;;;28.65;43.44;101623.50;5135560;27;20368;-47
2022/07/20 10:14:06;;;;;;;22.77;13.25;;;;;;;28.73;43.52;101629.47;5134773;27;20474;-44
2022/07/20 10:16:38;;;;;;;24.60;13.20;;;;;;;28.76;42.45;101639.09;5135472;27;20083;-44
2022/07/20 10:19:05;;;;;;;21.75;11.73;;;;;;;28.55;42.10;101639.75;5134659;27;20023;-44
2022/07/20 10:21:38;;;;;;;;;;;;;;;28.76;41.47;101641.75;5135655;27;20052;-46
2022/07/20 10:24:18;;;;;;;19.33;11.80;;;;;;;29.11;41.04;101640.50;5135202;27;19907;-46
2022/07/20 10:26:45;;;;;;;18.17;11.07;;;;;;;29.58;39.83;101636.19;5134706;27;20027;-48
2022/07/20 10:29:23;;;;;;;;;;;;;;;30.36;39.65;101632.25;5135487;27;20027;-45
2022/07/20 10:31:49;;;;;;;23.17;11.45;;;;;;;30.15;39.56;101618.91;5135219;27;19914;-44
2022/07/20 10:34:30;;;;;;;21.42;10.93;;;;;;;30.01;38.90;101624.78;5134038;27;20023;-47
2022/07/20 10:37:32;;;;;;;18.58;10.60;;;;;;;29.46;39.72;101633.06;5135163;27;20024;-44
2022/07/20 10:39:57;;;;;;;21.10;10.88;;;;;;;28.79;40.13;101631.88;5134165;27;20119;-49
2022/07/20 10:42:30;;;;;;;18.80;9.93;;;;;;;29.04;40.00;101631.91;5134912;27;20098;-49
2022/07/20 10:45:23;;;;;;;17.45;10.55;;;;;;;30.16;38.52;101633.94;5134674;27;20423;-47
2022/07/20 10:48:14;;;;;;;17.15;9.80;;;;;;;31.20;35.75;101622.47;5133905;27;20570;-45
2022/07/20 10:50:41;;;;;;;22.48;10.82;;;;;;;31.12;36.57;101624.63;5134823;27;20124;-48
2022/07/20 10:53:10;;;;;;;23.88;10.73;;;;;;;30.97;36.21;101617.28;5134531;27;20114;-46
2022/07/20 10:55:35;;;;;;;20.20;10.80;;;;;;;31.43;36.65;101615.22;5134094;27;20052;-45
2022/07/20 10:58:12;;;;;;;16.80;9.50;;;;;;;32.33;34.99;101603.84;5134726;27;20026;-45
2022/07/20 11:00:54;;;;;;;17.20;10.52;;;;;;;32.65;34.03;101608.47;5134807;27;20290;-45
2022/07/20 11:03:27;;;;;;;18.95;10.38;;;;;;;32.82;33.25;101626.31;5133682;27;20090;-48
2022/07/20 11:06:12;;;;;;;20.25;10.15;;;;;;;33.54;34.01;101631.44;5134655;27;20023;-47
2022/07/20 11:08:48;;;;;;;16.98;10.02;;;;;;;33.42;33.20;101636.50;5134280;27;20031;-48
2022/07/20 11:11:22;;;;;;;15.02;9.18;;;;;;;33.45;32.71;101625.63;5134116;27;20050;-46
2022/07/20 11:13:49;;;;;;;14.90;8.80;;;;;;;33.53;31.20;101633.22;5134323;27;20068;-45
2022/07/20 11:16:17;;;;;;;;;;;;;;;33.78;30.98;101632.72;5133590;27;20374;-47